Marshall, Minnesota
Current Conditions -  °F | °C
As of 11:15 PM on Monday 22 Dec 2014 (Local Time) from KMML Reporting Station
Overcast Overcast  
Wind Chill: 26°   Ceiling: 300
Heat Index: 34°   Visibility: 2.5mi
Dew Point: 30°   Wind: 10mph
Humidity: 87%   Direction: 80°E
Pressure: 29.57"   Gusts: NA
Location:  44.45°N, 95.79°W
Report Text: KMML 230515Z AUTO 08009KT 2 1/2SM OVC003 01/M01 A2957 RMK AO1
Loading
Personal Weather Stations






























Interactive Weather Map New forecast layout! Learn more

10-Day Weather Forecast

Advertisements
Track Severe Weather on mobile